La Crosse Municipal Airport La Crosse US
ICAO: KLSE
IATA: LSE
Category: Medium
Scheduled Services: Yes

Elevation: 655 ft
TransAlt. 18000 ft.

Airport Communications:
ATIS:124.95
MINNEAPOLIS CNTR:128.6
CTAF:118.45
GND:121.8
GREEN BAY RDO:122.2
TWR:118.45
UNICOM:122.95

KLSE Zoom In..

Runways:

(A) RW 03 length 5199 ft width 150 ft
---- / hdg 34

(B) RW 13 length 6050 ft width 150 ft
---- / hdg 132

(C) RW 18 length 8742 ft width 150 ft
ILS 111.10 / hdg 177

(D) RW 21 length 5199 ft width 150 ft
---- / hdg 214

(E) RW 31 length 6050 ft width 150 ft
---- / hdg 312

(F) RW 36 length 8742 ft width 150 ft
---- / hdg 357

Location; KLSE
Day. 23 / Time. 14.53 Zulu
* Altimeter: 29.90
* Temperature: -04° c. -24.8°f.
* Wind from: 340° Speed 15 kn.
Dewpoint: -07° c.
Visibility: 10 Statute Miles.
Clouds: Overcast 1400 ft.

KLSE 231453Z 34015KT 10SM OVC014 M04/M07 A2990 RMK AO2 SLP139 60000 T10391067 53034


Wind From 340°
Speed 15 kn.

YouTube Music Video
 
jpsmedia.com for Web Design  worldairports.se 2018   terms of use